GCRRLPMA

Guest
Details From GCRR - Lanzarote
To LPMA - Madeira
Flight Number -
Tags generated
Created
Modified
Stats Distance 300 nm / 555 km
Max Altitude 34,000 ft / 10,363 m
Waypoints 6
Social Downloads 2
Likes 0
Share VATSIM

Download

Looking for another format? Having issues loading an existing format? Contact us
Advertisement - Login to hide

Notes

Basic altitude profile: - Ascent Rate: 1500ft/min - Ascent Speed: 170kts - Cruise Altitude: 15000ft - Cruise Speed: 230kts - Descent Rate: 1500ft/min - Descent Speed: 160kts Options: - Use NATs: yes - Use PACOTS: yes - Use low airways: yes - Use high airways: no

Route

GCRR SARAY 3000N01500W GURKA B18 BIMBO LPMA

ID Type Via Altitude Latitude Longitude Leg Dist Tot Dist Heading (true) Name
O GCRR APT - 0 ft / 0 m 28.94547˚ -13.60522˚ - 0 nm - Lanzarote
SARAY FIX - 20,200 ft / 6,157 m 29.75863˚ -14.15743˚ 56 nm 56 nm 330° / 329° -
3000N01500W LATLON - 34,000 ft / 10,363 m 30.00000˚ -15.00000˚ 46 nm 102 nm 288° / 288° -
GURKA FIX - 30,100 ft / 9,174 m 30.43400˚ -15.85026˚ 51 nm 154 nm 301° / 300° -
BIMBO FIX B18 (AWY-LO) 18,300 ft / 5,578 m 31.42145˚ -16.03287˚ 60 nm 214 nm 351° / 351° -
O LPMA APT - 0 ft / 0 m 32.69770˚ -16.77445˚ 85 nm 299 nm 334° / 334° Madeira

Altitude Profile

Advertisement - Login to hide

Weather


0- 5 10 15 20 25 30 35+ Temperature / ° C

Clouds and Precipitation
Forecast for 2018-05-27 00:00 UTC. Updated 27 minutes ago

Ground ~20,000 ft ~40,000 ft Winds

GCRR

Details ICAO GCRR (ACE)
Name Lanzarote
Region Canary Islands
Timezone Atlantic/Canary (UTC+1.0)
Stats Elevation 0 ft / 0 m (AMSL)
Location 28.945466° -13.605223°
Runways 1
Magnetic Variation 3.925° W

METAR

GCRR 262330Z 35006KT 320V020 9999 FEW028 SCT047 19/13 Q1019

Decode

TAF

TAF GCRR 262000Z 2621/2721 35008KT 9999 FEW035 SCT045 TX24/2714Z TN16/2705Z

Decode

Departure Runways

ID Width Length Bearing (true) Bearing (mag) Surface Threshold Offset Overrun Length
03 148 ft / 45 m 7,893 ft / 2,406 m 26.90° 30.82° Asphalt 197 ft / 60 m 197 ft / 60 m
21 148 ft / 45 m 7,893 ft / 2,406 m 206.91° 210.83° Asphalt 197 ft / 60 m 197 ft / 60 m

LPMA

Details ICAO LPMA (FNC)
Name Madeira
Region Portugal
Timezone Atlantic/Madeira (UTC+1.0)
Stats Elevation 192 ft / 59 m (AMSL)
Location 32.697704° -16.774449°
Runways 1
Magnetic Variation 4.927° W

METAR

LPMA 262330Z VRB07G18KT 9999 SCT016 16/10 Q1021

Decode

TAF

TAF LPMA 261700Z 2618/2718 36012KT 9999 SCT016 SCT030 TEMPO 2618/2708 BKN015 PROB30 TEMPO 2708/2718 36015G25KT

Decode

Destination Runways

ID Width Length Bearing (true) Bearing (mag) Surface Threshold Offset Overrun Length
05 141 ft / 43 m 8,683 ft / 2,647 m 42.98° 47.91° Asphalt 472 ft / 144 m 0 ft / 0 m
23 141 ft / 43 m 8,683 ft / 2,647 m 222.99° 227.92° Asphalt 466 ft / 142 m 0 ft / 0 m

Popular Alternatives